Time;durP1;ratioP1;P1;durP2;ratioP2;P2;SDS_P1;SDS_P2;PMS_P1;PMS_P2;Temp;Humidity;BMP_temperature;BMP_pressure;BME280_temperature;BME280_humidity;BME280_pressure;Samples;Min_cycle;Max_cycle;Signal;HPM_P1;HPM_P2
2022/01/09 00:00:49;;;;;;;;;;;;;;;5.24;100.00;96770.47;5098543;28;20337;-77
2022/01/09 00:03:17;;;;;;;;;;;;;;;5.34;100.00;96770.13;5098154;28;20426;-77
2022/01/09 00:05:44;;;;;;;;;;;;;;;5.17;100.00;96760.38;5116338;28;19928;-77
2022/01/09 00:08:11;;;;;;;;;;;;;;;5.18;100.00;96775.00;5116151;28;19955;-77
2022/01/09 00:10:45;;;;;;;;;;;;;;;5.30;100.00;96785.31;5098018;28;19969;-77
2022/01/09 00:13:12;;;;;;;;;;;;;;;5.16;100.00;96727.59;5064415;28;20298;-77
2022/01/09 00:15:39;;;;;;;;;;;;;;;5.29;100.00;96792.03;5098083;28;20401;-77
2022/01/09 00:18:06;;;;;;;;;;;;;;;5.29;100.00;96784.53;5116099;28;19969;-77
2022/01/09 00:20:33;;;;;;;;;;;;;;;5.24;100.00;96789.84;5081312;28;19924;-77
2022/01/09 00:23:01;;;;;;;;;;;;;;;5.26;100.00;96788.16;5116020;28;19930;-77
2022/01/09 00:25:28;;;;;;;;;;;;;;;4.99;100.00;96753.84;5116455;27;19923;-77
2022/01/09 00:27:55;;;;;;;;;;;;;;;5.27;100.00;96786.94;5101082;27;19924;-77
2022/01/09 00:30:23;;;;;;;;;;;;;;;5.20;100.00;96776.09;5101155;27;19987;-77
2022/01/09 00:32:51;;;;;;;;;;;;;;;5.23;100.00;96777.97;5100911;27;19996;-77
2022/01/09 00:35:18;;;;;;;;;;;;;;;5.24;100.00;96792.63;5118117;27;19923;-77
2022/01/09 00:37:45;;;;;;;;;;;;;;;5.42;100.00;96793.59;5101013;27;20018;-77
2022/01/09 00:40:12;;;;;;;;;;;;;;;5.19;100.00;96790.38;5118034;27;19976;-77
2022/01/09 00:42:40;;;;;;;;;;;;;;;5.30;100.00;96769.44;5117936;27;20420;-77
2022/01/09 00:45:08;;;;;;;;;;;;;;;5.20;100.00;96789.94;5100890;27;19924;-77
2022/01/09 00:47:35;;;;;;;;;;;;;;;5.21;100.00;96815.66;5136218;27;20014;-77
2022/01/09 00:50:03;;;;;;;;;;;;;;;5.23;100.00;96813.19;5117816;27;19931;-77
2022/01/09 00:52:30;;;;;;;;;;;;;;;5.22;100.00;96817.97;5100067;27;19927;-77
2022/01/09 00:54:57;;;;;;;;;;;;;;;5.37;100.00;96826.59;5100612;27;20022;-77
2022/01/09 00:57:24;;;;;;;;;;;;;;;5.13;100.00;96775.56;5117458;27;19927;-77
2022/01/09 00:59:51;;;;;;;;;;;;;;;5.22;100.00;96790.28;5100721;27;19931;-77
2022/01/09 01:02:18;;;;;;;;;;;;;;;5.24;100.00;96812.75;5083673;27;19934;-77
2022/01/09 01:04:46;;;;;;;;;;;;;;;5.37;100.00;96796.94;5117604;27;19927;-77
2022/01/09 01:07:13;;;;;;;;;;;;;;;5.32;100.00;96819.63;5117380;27;20390;-77
2022/01/09 01:09:41;;;;;;;;;;;;;;;5.22;100.00;96828.25;5135354;27;20007;-77
2022/01/09 01:12:08;;;;;;;;;;;;;;;5.26;100.00;96790.16;5135544;27;19923;-77
2022/01/09 01:14:35;;;;;;;;;;;;;;;5.21;100.00;96826.72;5135613;27;19975;-77
2022/01/09 01:17:02;;;;;;;;;;;;;;;5.15;100.00;96831.25;5117086;27;19924;-77
2022/01/09 01:19:29;;;;;;;;;;;;;;;4.85;100.00;96788.25;5117303;27;19923;-77
2022/01/09 01:22:00;;;;;;;;;;;;;;;5.04;100.00;96844.63;5100105;27;19930;-77
2022/01/09 01:24:27;;;;;;;;;;;;;;;4.89;100.00;96819.34;5124873;27;20355;-77
2022/01/09 01:26:54;;;;;;;;;;;;;;;4.98;100.00;96813.16;5096094;28;20405;-77
2022/01/09 01:29:21;;;;;;;;;;;;;;;4.98;100.00;96807.63;5062995;28;19980;-77
2022/01/09 01:31:48;;;;;;;;;;;;;;;5.03;100.00;96823.69;5114731;28;19923;-77
2022/01/09 01:34:15;;;;;;;;;;;;;;;5.12;100.00;96824.59;5063107;28;20018;-77
2022/01/09 01:36:42;;;;;;;;;;;;;;;4.86;100.00;96792.56;5096478;28;19924;-77
2022/01/09 01:39:09;;;;;;;;;;;;;;;4.91;100.00;96819.69;5096147;28;19973;-77
2022/01/09 01:41:36;;;;;;;;;;;;;;;4.90;100.00;96831.19;5114431;28;19928;-77
2022/01/09 01:44:07;;;;;;;;;;;;;;;4.96;100.00;96832.19;5096232;28;19930;-77
2022/01/09 01:46:36;;;;;;;;;;;;;;;4.98;100.00;96807.63;5096637;28;19931;-77
2022/01/09 01:49:04;;;;;;;;;;;;;;;4.92;100.00;96826.75;5079653;28;20012;-77
2022/01/09 01:51:34;;;;;;;;;;;;;;;4.99;100.00;96837.63;5079509;28;20386;-77
2022/01/09 01:54:01;;;;;;;;;;;;;;;5.03;100.00;96843.84;5114061;28;19924;-77
2022/01/09 01:56:29;;;;;;;;;;;;;;;5.13;100.00;96848.31;5114326;28;20399;-77
2022/01/09 01:58:56;;;;;;;;;;;;;;;5.06;100.00;96851.25;5114490;28;19923;-77
2022/01/09 02:01:23;;;;;;;;;;;;;;;5.13;100.00;96831.69;5114291;28;20367;-77
2022/01/09 02:03:50;;;;;;;;;;;;;;;5.07;100.00;96841.72;5095804;28;19931;-77
2022/01/09 02:06:17;;;;;;;;;;;;;;;5.13;100.00;96815.09;5095455;28;19930;-77
2022/01/09 02:08:44;;;;;;;;;;;;;;;5.14;100.00;96838.78;5095609;28;20286;-77
2022/01/09 02:11:12;;;;;;;;;;;;;;;5.16;100.00;96864.03;5114069;28;20350;-77
2022/01/09 02:13:45;;;;;;;;;;;;;;;5.12;100.00;96857.81;5113776;28;19930;-77
2022/01/09 02:16:17;;;;;;;;;;;;;;;5.15;100.00;96876.28;5079045;28;19969;-77
2022/01/09 02:18:47;;;;;;;;;;;;;;;5.00;100.00;96886.22;5079322;28;19989;-77
2022/01/09 02:21:15;;;;;;;;;;;;;;;5.36;100.00;96863.81;5114030;28;20382;-77
2022/01/09 02:23:45;;;;;;;;;;;;;;;5.20;100.00;96853.63;5117720;28;19924;-77
2022/01/09 02:26:24;;;;;;;;;;;;;;;5.17;100.00;96879.41;5134645;28;19929;-77
2022/01/09 02:28:51;;;;;;;;;;;;;;;5.24;100.00;96881.22;5116257;28;19923;-77
2022/01/09 02:31:19;;;;;;;;;;;;;;;5.09;100.00;96874.50;5099112;28;19953;-77
2022/01/09 02:33:45;;;;;;;;;;;;;;;5.22;100.00;96873.34;5099348;28;19928;-77
2022/01/09 02:36:13;;;;;;;;;;;;;;;5.24;100.00;96881.97;5116216;28;20004;-77
2022/01/09 02:38:40;;;;;;;;;;;;;;;5.20;100.00;96902.66;5098971;28;19930;-77
2022/01/09 02:41:07;;;;;;;;;;;;;;;5.21;100.00;96910.53;5134753;28;20022;-77
2022/01/09 02:43:34;;;;;;;;;;;;;;;5.19;100.00;96918.50;5134428;28;19935;-77
2022/01/09 02:48:35;;;;;;;;;;;;;;;5.35;100.00;96915.66;5134320;28;20442;-77
2022/01/09 02:51:11;;;;;;;;;;;;;;;5.14;100.00;96927.34;5098860;28;19923;-77
2022/01/09 02:53:40;;;;;;;;;;;;;;;5.29;100.00;96922.16;5116248;28;19930;-77
2022/01/09 02:56:09;;;;;;;;;;;;;;;5.27;100.00;96917.06;5099374;28;19946;-77
2022/01/09 02:58:37;;;;;;;;;;;;;;;5.29;100.00;96917.41;5099223;28;20006;-77
2022/01/09 03:01:04;;;;;;;;;;;;;;;5.34;100.00;96935.47;5134435;28;20321;-77
2022/01/09 03:03:31;;;;;;;;;;;;;;;5.40;100.00;96928.97;5115958;28;20017;-77
2022/01/09 03:05:59;;;;;;;;;;;;;;;5.25;100.00;96938.91;5099144;28;19993;-77
2022/01/09 03:08:26;;;;;;;;;;;;;;;5.31;100.00;96930.81;5112106;28;19959;-77
2022/01/09 03:10:53;;;;;;;;;;;;;;;5.20;100.00;96933.91;5112527;28;20343;-77
2022/01/09 03:13:20;;;;;;;;;;;;;;;5.23;100.00;96935.78;5112471;28;19928;-77
2022/01/09 03:15:47;;;;;;;;;;;;;;;5.37;100.00;96940.94;5115366;28;20022;-77
2022/01/09 03:18:14;;;;;;;;;;;;;;;5.53;100.00;96942.81;5116251;28;20024;-77
2022/01/09 03:20:41;;;;;;;;;;;;;;;5.43;100.00;96955.78;5115922;28;20053;-77
2022/01/09 03:23:08;;;;;;;;;;;;;;;5.37;100.00;96974.16;5098970;28;19924;-77
2022/01/09 03:25:36;;;;;;;;;;;;;;;5.30;100.00;96977.09;5095553;28;19924;-77
2022/01/09 03:28:03;;;;;;;;;;;;;;;5.18;100.00;96955.69;5095603;28;19924;-77
2022/01/09 03:30:30;;;;;;;;;;;;;;;5.38;100.00;96964.63;5096672;28;19947;-77
2022/01/09 03:32:59;;;;;;;;;;;;;;;5.37;100.00;96974.16;5096782;28;19928;-77
2022/01/09 03:35:27;;;;;;;;;;;;;;;5.49;100.00;96959.56;5078540;28;19924;-77
2022/01/09 03:37:54;;;;;;;;;;;;;;;5.33;100.00;96950.53;5096758;28;19977;-77
2022/01/09 03:40:22;;;;;;;;;;;;;;;5.34;100.00;96947.34;5095269;28;19928;-77
2022/01/09 03:42:51;;;;;;;;;;;;;;;5.28;100.00;96965.72;5095349;28;20317;-77
2022/01/09 03:45:19;;;;;;;;;;;;;;;5.47;100.00;96973.06;5096466;28;19928;-77
2022/01/09 03:47:47;;;;;;;;;;;;;;;5.45;100.00;96992.09;5095334;28;19993;-77
2022/01/09 03:50:17;;;;;;;;;;;;;;;5.11;100.00;96966.97;5094828;28;19985;-77
2022/01/09 03:52:47;;;;;;;;;;;;;;;5.23;100.00;96985.63;5078610;28;20283;-77
2022/01/09 03:55:14;;;;;;;;;;;;;;;5.35;100.00;96993.19;5095111;28;19924;-77
2022/01/09 03:57:42;;;;;;;;;;;;;;;5.54;100.00;96986.69;5095213;28;19930;-77
2022/01/09 04:00:10;;;;;;;;;;;;;;;5.52;100.00;96986.38;5096404;28;19928;-77
2022/01/09 04:02:37;;;;;;;;;;;;;;;5.30;100.00;96996.47;5094803;28;19924;-77
2022/01/09 04:05:06;;;;;;;;;;;;;;;5.17;100.00;96998.44;5094738;28;19986;-77
2022/01/09 04:07:33;;;;;;;;;;;;;;;5.01;100.00;96994.94;5097035;28;19934;-77
2022/01/09 04:10:00;;;;;;;;;;;;;;;5.01;100.00;97009.53;5080832;28;19997;-77
2022/01/09 04:12:34;;;;;;;;;;;;;;;5.14;100.00;96998.53;5081879;28;20323;-77
2022/01/09 04:15:06;;;;;;;;;;;;;;;4.94;100.00;96995.13;5081794;28;19924;-77
2022/01/09 04:17:45;;;;;;;;;;;;;;;4.91;100.00;97013.38;5098086;28;20512;-77
2022/01/09 04:20:12;;;;;;;;;;;;;;;5.28;100.00;97018.31;5116324;28;20363;-77
2022/01/09 04:22:40;;;;;;;;;;;;;;;5.29;100.00;97010.78;5116284;28;20382;-77
2022/01/09 04:25:07;;;;;;;;;;;;;;;5.21;100.00;97001.88;5098205;28;20404;-77
2022/01/09 04:27:34;;;;;;;;;;;;;;;5.05;100.00;97006.69;5116164;28;20419;-77
2022/01/09 04:30:02;;;;;;;;;;;;;;;5.22;100.00;97022.03;5097822;28;19924;-77
2022/01/09 04:32:30;;;;;;;;;;;;;;;5.34;100.00;97024.88;5097673;28;19963;-77
2022/01/09 04:34:58;;;;;;;;;;;;;;;5.20;100.00;97018.94;5047942;28;20328;-77
2022/01/09 04:37:25;;;;;;;;;;;;;;;4.83;100.00;97023.06;5115882;27;19984;-77
2022/01/09 04:39:53;;;;;;;;;;;;;;;4.60;100.00;97020.50;5097488;28;20019;-77
2022/01/09 04:42:25;;;;;;;;;;;;;;;4.40;100.00;97032.84;5097702;28;19930;-76
2022/01/09 04:44:52;;;;;;;;;;;;;;;4.68;100.00;97032.19;5115907;28;19984;-77
2022/01/09 04:47:20;;;;;;;;;;;;;;;4.81;100.00;97036.56;5115551;28;20359;-77
2022/01/09 04:49:49;;;;;;;;;;;;;;;5.00;100.00;97026.56;5097808;28;20011;-77
2022/01/09 04:52:20;;;;;;;;;;;;;;;5.01;100.00;97034.44;5115484;28;19924;-77
2022/01/09 04:54:48;;;;;;;;;;;;;;;4.99;100.00;97031.34;5097364;28;19924;-77
2022/01/09 04:57:15;;;;;;;;;;;;;;;5.00;100.00;97048.72;5097370;28;19950;-77
2022/01/09 04:59:42;;;;;;;;;;;;;;;4.95;100.00;97044.50;5115579;28;19931;-77
2022/01/09 05:02:09;;;;;;;;;;;;;;;5.01;100.00;97047.53;5097072;28;19928;-77
2022/01/09 05:04:36;;;;;;;;;;;;;;;5.15;100.00;97047.91;5080453;28;19928;-77
2022/01/09 05:07:03;;;;;;;;;;;;;;;5.09;100.00;97057.19;5115400;28;19924;-77
2022/01/09 05:09:30;;;;;;;;;;;;;;;5.34;100.00;97049.00;5096641;28;19923;-77
2022/01/09 05:11:57;;;;;;;;;;;;;;;5.24;100.00;97063.94;5115082;28;19924;-77
2022/01/09 05:14:24;;;;;;;;;;;;;;;5.35;100.00;97047.78;5097013;28;19924;-77
2022/01/09 05:16:51;;;;;;;;;;;;;;;5.15;100.00;97064.53;5114736;28;19924;-76
2022/01/09 05:19:21;;;;;;;;;;;;;;;5.11;100.00;97065.84;5114868;28;20394;-77
2022/01/09 05:21:49;;;;;;;;;;;;;;;5.11;100.00;97076.91;5114772;28;19930;-77
2022/01/09 05:24:16;;;;;;;;;;;;;;;5.17;100.00;97081.50;5105411;27;20013;-77
2022/01/09 05:26:43;;;;;;;;;;;;;;;5.13;100.00;97078.06;5116959;27;19976;-77
2022/01/09 05:29:10;;;;;;;;;;;;;;;5.17;100.00;97081.50;5116965;27;20067;-76
2022/01/09 05:31:38;;;;;;;;;;;;;;;5.33;100.00;97087.00;5134773;27;20018;-77
2022/01/09 05:34:06;;;;;;;;;;;;;;;5.17;100.00;97087.03;5113132;27;20435;-77
2022/01/09 05:36:33;;;;;;;;;;;;;;;5.23;100.00;97093.59;5092038;28;19924;-77
2022/01/09 05:39:01;;;;;;;;;;;;;;;5.21;100.00;97081.41;5113998;28;19969;-77
2022/01/09 05:41:27;;;;;;;;;;;;;;;5.22;100.00;97082.97;5096161;28;19924;-77
2022/01/09 05:43:55;;;;;;;;;;;;;;;5.20;100.00;97102.78;5079612;28;19930;-77
2022/01/09 05:46:22;;;;;;;;;;;;;;;4.90;100.00;97094.06;5062750;28;19931;-77
2022/01/09 05:48:49;;;;;;;;;;;;;;;4.61;100.00;97088.44;5079544;28;19931;-77
2022/01/09 05:51:16;;;;;;;;;;;;;;;4.44;100.00;97089.63;5096161;28;20087;-77
2022/01/09 05:53:43;;;;;;;;;;;;;;;4.60;100.00;97097.16;5109770;27;19959;-77
2022/01/09 05:56:11;;;;;;;;;;;;;;;4.99;100.00;97097.00;5116872;28;19931;-77
2022/01/09 05:58:39;;;;;;;;;;;;;;;4.74;100.00;97102.38;5099925;27;20398;-77
2022/01/09 06:01:07;;;;;;;;;;;;;;;4.68;100.00;97104.84;5099249;28;19931;-76
2022/01/09 06:03:34;;;;;;;;;;;;;;;4.92;100.00;97109.00;5134656;27;19970;-76
2022/01/09 06:06:01;;;;;;;;;;;;;;;4.74;100.00;97103.13;5134727;27;19929;-77
2022/01/09 06:08:28;;;;;;;;;;;;;;;4.88;100.00;97107.53;5125426;27;20007;-77
2022/01/09 06:10:55;;;;;;;;;;;;;;;5.00;100.00;97104.84;5049465;28;20279;-77
2022/01/09 06:13:22;;;;;;;;;;;;;;;4.76;100.00;97106.25;5095854;28;19924;-77
2022/01/09 06:15:51;;;;;;;;;;;;;;;4.91;100.00;97101.94;5112935;28;19980;-77
2022/01/09 06:18:19;;;;;;;;;;;;;;;4.78;100.00;97101.06;5116568;28;20018;-77
2022/01/09 06:20:47;;;;;;;;;;;;;;;4.95;100.00;97113.66;5134678;28;19931;-77
2022/01/09 06:23:16;;;;;;;;;;;;;;;5.04;100.00;97111.06;5099571;28;20018;-77
2022/01/09 06:25:43;;;;;;;;;;;;;;;5.00;100.00;97115.94;5099390;28;19929;-77
2022/01/09 06:28:11;;;;;;;;;;;;;;;5.04;100.00;97116.59;5115554;28;19923;-77
2022/01/09 06:30:38;;;;;;;;;;;;;;;5.13;100.00;97135.41;5095336;28;19930;-77
2022/01/09 06:33:05;;;;;;;;;;;;;;;5.26;100.00;97128.72;5095647;28;20026;-77
2022/01/09 06:35:32;;;;;;;;;;;;;;;5.15;100.00;97122.66;5078822;28;20376;-77
2022/01/09 06:37:59;;;;;;;;;;;;;;;5.38;100.00;97113.38;5095347;28;20053;-77
2022/01/09 06:40:26;;;;;;;;;;;;;;;5.38;100.00;97133.53;5095766;28;19928;-77
2022/01/09 06:42:53;;;;;;;;;;;;;;;5.36;100.00;97126.91;5113665;28;19924;-77
2022/01/09 06:45:22;;;;;;;;;;;;;;;5.34;100.00;97116.25;5079050;28;20008;-77
2022/01/09 06:47:48;;;;;;;;;;;;;;;5.33;100.00;97122.22;5079064;28;20018;-76
2022/01/09 06:50:16;;;;;;;;;;;;;;;5.16;100.00;97123.44;5116273;28;19924;-77
2022/01/09 06:52:43;;;;;;;;;;;;;;;4.94;100.00;97117.66;5082592;28;19924;-77
2022/01/09 06:55:11;;;;;;;;;;;;;;;4.90;100.00;97124.50;5117757;28;20363;-77
2022/01/09 06:58:03;;;;;;;;;;;;;;;4.78;100.00;97103.84;5082396;28;20006;-76
2022/01/09 07:00:30;;;;;;;;;;;;;;;4.47;100.00;97105.34;5082699;28;19969;-77
2022/01/09 07:02:56;;;;;;;;;;;;;;;4.50;100.00;97121.09;5117604;28;19928;-76
2022/01/09 07:05:24;;;;;;;;;;;;;;;4.55;100.00;97123.34;5099387;28;19959;-76
2022/01/09 07:07:51;;;;;;;;;;;;;;;4.68;100.00;97121.44;5117383;28;19947;-77
2022/01/09 07:10:18;;;;;;;;;;;;;;;4.54;100.00;97127.34;5117419;28;19924;-76
2022/01/09 07:12:45;;;;;;;;;;;;;;;4.50;100.00;97110.03;5107664;27;19924;-77
2022/01/09 07:15:12;;;;;;;;;;;;;;;4.39;100.00;97120.53;5117513;27;19930;-76
2022/01/09 07:17:39;;;;;;;;;;;;;;;4.36;100.00;97126.16;5117335;28;19924;-76
2022/01/09 07:20:06;;;;;;;;;;;;;;;4.23;100.00;97117.75;5099373;28;20195;-76
2022/01/09 07:22:33;;;;;;;;;;;;;;;4.16;100.00;97131.75;5099042;28;19923;-76
2022/01/09 07:25:01;;;;;;;;;;;;;;;4.20;100.00;97137.97;5117223;28;19924;-76
2022/01/09 07:27:28;;;;;;;;;;;;;;;4.25;100.00;97126.41;5098652;28;19928;-76
2022/01/09 07:29:55;;;;;;;;;;;;;;;4.34;100.00;97153.47;5099367;28;19931;-76
2022/01/09 07:32:23;;;;;;;;;;;;;;;4.28;100.00;97157.94;5098776;28;19947;-77
2022/01/09 07:34:50;;;;;;;;;;;;;;;4.18;100.00;97148.66;5117127;28;19924;-78
2022/01/09 07:37:17;;;;;;;;;;;;;;;4.13;100.00;97157.47;5098788;28;19927;-76
2022/01/09 07:39:45;;;;;;;;;;;;;;;3.99;100.00;97154.19;5098771;28;19924;-76
2022/01/09 07:42:11;;;;;;;;;;;;;;;3.82;100.00;97172.69;5116627;28;19928;-75
2022/01/09 07:44:39;;;;;;;;;;;;;;;4.00;100.00;97186.16;5098799;27;19986;-75
2022/01/09 07:47:07;;;;;;;;;;;;;;;3.85;100.00;97173.84;5129611;27;20299;-75
2022/01/09 07:49:34;;;;;;;;;;;;;;;3.80;100.00;97183.41;5097993;28;19973;-75
2022/01/09 07:52:01;;;;;;;;;;;;;;;3.90;100.00;97190.69;5081561;28;19923;-75
2022/01/09 07:54:28;;;;;;;;;;;;;;;4.01;100.00;97171.94;5116361;28;19923;-75
2022/01/09 07:56:55;;;;;;;;;;;;;;;3.93;100.00;97173.28;5083208;28;19930;-75
2022/01/09 07:59:22;;;;;;;;;;;;;;;4.08;100.00;97162.69;5122656;27;20270;-75
2022/01/09 08:01:50;;;;;;;;;;;;;;;3.99;100.00;97154.19;5136517;27;19924;-75
2022/01/09 08:04:18;;;;;;;;;;;;;;;4.03;100.00;97152.16;5118407;27;19928;-75
2022/01/09 08:06:45;;;;;;;;;;;;;;;4.02;100.00;97159.66;5136725;27;19928;-75
2022/01/09 08:09:12;;;;;;;;;;;;;;;3.84;100.00;97158.44;5101734;27;19927;-75
2022/01/09 08:11:40;;;;;;;;;;;;;;;3.93;100.00;97170.50;5118011;27;19975;-75
2022/01/09 08:15:18;;;;;;;;;;;;;;;3.88;100.00;97154.41;5019449;27;2129985;-75
2022/01/09 08:17:45;;;;;;;;;;;;;;;4.04;100.00;97171.06;5111302;28;19931;-75
2022/01/09 08:20:14;;;;;;;;;;;;;;;4.00;100.00;97158.53;5093404;28;19980;-75
2022/01/09 08:22:42;;;;;;;;;;;;;;;3.96;100.00;97155.84;5093288;28;20240;-75
2022/01/09 08:25:09;;;;;;;;;;;;;;;4.02;100.00;97172.69;5092513;28;20018;-75
2022/01/09 08:27:37;;;;;;;;;;;;;;;4.00;100.00;97175.88;5110827;28;20396;-76
2022/01/09 08:30:06;;;;;;;;;;;;;;;3.92;100.00;97155.13;5111178;28;20325;-82
2022/01/09 08:32:34;;;;;;;;;;;;;;;4.12;100.00;97175.22;5091482;28;19924;-75
2022/01/09 08:35:02;;;;;;;;;;;;;;;4.14;100.00;97180.34;5069581;28;19935;-75
2022/01/09 08:37:29;;;;;;;;;;;;;;;4.18;100.00;97170.00;5072873;28;20015;-75
2022/01/09 08:39:57;;;;;;;;;;;;;;;4.41;100.00;97175.44;5072539;28;20275;-75
2022/01/09 08:42:25;;;;;;;;;;;;;;;4.53;100.00;97191.38;5090747;28;19924;-75
2022/01/09 08:44:52;;;;;;;;;;;;;;;4.48;100.00;97206.47;5072941;28;20379;-75
2022/01/09 08:47:27;;;;;;;;;;;;;;;4.57;100.00;97201.16;5099018;28;19932;-75
2022/01/09 08:50:36;;;;;;;;;;;;;;;4.55;100.00;97195.25;5050892;28;20553;-76
2022/01/09 08:53:21;;;;;;;;;;;;;;;4.60;100.00;97196.75;5108787;28;19928;-76
2022/01/09 09:03:09;;;;;;;;;;;;;;;4.68;100.00;97217.50;5109073;28;19930;-76
2022/01/09 09:06:36;;;;;;;;;;;;;;;4.87;100.00;97239.59;5089830;28;19924;-75
2022/01/09 09:09:12;;;;;;;;;;;;;;;4.85;100.00;97225.41;5074568;28;19932;-75
2022/01/09 09:11:44;;;;;;;;;;;;;;;4.84;100.00;97243.22;5067568;28;19924;-74
2022/01/09 09:14:11;;;;;;;;;;;;;;;4.71;100.00;97234.00;5082932;28;20038;-74
2022/01/09 09:16:37;;;;;;;;;;;;;;;4.70;100.00;97251.81;5095005;28;19956;-74
2022/01/09 09:19:06;;;;;;;;;;;;;;;4.55;100.00;97250.56;5088674;28;20290;-74
2022/01/09 09:21:32;;;;;;;;;;;;;;;4.67;100.00;97247.16;5077781;28;19928;-74
2022/01/09 09:23:59;;;;;;;;;;;;;;;4.69;100.00;97255.81;5099896;28;20030;-74
2022/01/09 09:26:27;;;;;;;;;;;;;;;4.70;100.00;97251.03;5073202;28;19928;-76
2022/01/09 09:28:54;;;;;;;;;;;;;;;4.57;100.00;97253.69;5061769;28;19978;-75
2022/01/09 09:31:21;;;;;;;;;;;;;;;4.65;100.00;97244.03;5074348;28;19924;-75
2022/01/09 09:33:57;;;;;;;;;;;;;;;4.76;100.00;97258.41;5043788;28;20497;-78
2022/01/09 09:36:24;;;;;;;;;;;;;;;4.62;100.00;97250.41;5070278;28;20433;-79
2022/01/09 09:38:53;;;;;;;;;;;;;;;4.78;100.00;97252.44;5095747;28;19928;-79
2022/01/09 09:41:21;;;;;;;;;;;;;;;4.50;100.00;97237.25;5096569;28;19928;-76
2022/01/09 09:43:49;;;;;;;;;;;;;;;4.67;100.00;97247.16;5096329;28;19931;-77
2022/01/09 09:46:21;;;;;;;;;;;;;;;4.58;100.00;97244.19;5091424;28;19944;-76
2022/01/09 09:48:48;;;;;;;;;;;;;;;4.56;100.00;97238.28;5095577;28;19931;-76
2022/01/09 09:51:15;;;;;;;;;;;;;;;4.69;100.00;97244.75;5077798;28;19939;-76
2022/01/09 09:53:43;;;;;;;;;;;;;;;4.70;100.00;97217.84;5096008;28;20015;-76
2022/01/09 09:56:10;;;;;;;;;;;;;;;4.78;100.00;97233.09;5096242;28;20011;-75
2022/01/09 09:58:39;;;;;;;;;;;;;;;4.87;100.00;97250.66;5096116;28;20367;-75
2022/01/09 10:01:08;;;;;;;;;;;;;;;5.08;100.00;97255.72;5096004;28;19924;-76
2022/01/09 10:03:35;;;;;;;;;;;;;;;5.05;100.00;97266.88;5095984;28;19967;-76
2022/01/09 10:06:02;;;;;;;;;;;;;;;5.12;100.00;97261.16;5077676;28;19977;-76
2022/01/09 10:08:36;;;;;;;;;;;;;;;5.31;100.00;97266.66;5088018;28;19960;-76
2022/01/09 10:11:14;;;;;;;;;;;;;;;5.38;100.00;97252.63;5064189;28;20267;-78
2022/01/09 10:13:41;;;;;;;;;;;;;;;5.43;100.00;97251.31;5074213;28;19924;-78
2022/01/09 10:16:10;;;;;;;;;;;;;;;5.64;100.00;97256.34;5075681;28;19928;-80
2022/01/09 10:18:39;;;;;;;;;;;;;;;5.58;100.00;97256.09;5041499;28;19931;-77
2022/01/09 10:21:11;;;;;;;;;;;;;;;5.40;100.00;97252.97;5068288;28;19924;-77
2022/01/09 10:23:56;;;;;;;;;;;;;;;5.23;100.00;97245.88;5064293;28;20007;-77
2022/01/09 10:26:24;;;;;;;;;;;;;;;5.45;100.00;97252.44;5070470;28;19987;-77
2022/01/09 10:28:51;;;;;;;;;;;;;;;5.31;100.00;97241.72;5073232;28;19929;-77
2022/01/09 10:31:19;;;;;;;;;;;;;;;5.76;100.00;97265.94;5072408;28;19947;-77
2022/01/09 10:34:03;;;;;;;;;;;;;;;5.70;100.00;97256.59;5071814;28;20019;-78
2022/01/09 10:36:31;;;;;;;;;;;;;;;5.85;100.00;97253.06;5071446;28;19924;-78
2022/01/09 10:39:04;;;;;;;;;;;;;;;5.82;100.00;97256.69;5072121;28;19947;-77
2022/01/09 10:41:48;;;;;;;;;;;;;;;6.07;100.00;97239.41;5074443;28;20015;-79
2022/01/09 10:44:16;;;;;;;;;;;;;;;6.12;100.00;97249.97;5053741;28;20010;-78
2022/01/09 10:46:54;;;;;;;;;;;;;;;6.02;100.00;97234.38;5073013;28;19962;-77
2022/01/09 10:49:21;;;;;;;;;;;;;;;6.02;100.00;97243.50;5074780;28;19986;-78
2022/01/09 10:51:49;;;;;;;;;;;;;;;5.96;100.00;97258.31;5074709;28;19924;-78
2022/01/09 10:54:29;;;;;;;;;;;;;;;5.70;100.00;97243.53;5074949;28;19924;-78
2022/01/09 10:57:14;;;;;;;;;;;;;;;5.54;100.00;97263.69;5074796;28;19928;-78
2022/01/09 10:59:42;;;;;;;;;;;;;;;5.39;100.00;97276.34;5073391;28;19925;-79
2022/01/09 11:02:12;;;;;;;;;;;;;;;5.30;100.00;97234.63;5074955;28;20019;-78
2022/01/09 11:04:40;;;;;;;;;;;;;;;5.37;100.00;97283.53;5074215;28;20403;-78
2022/01/09 11:07:08;;;;;;;;;;;;;;;5.26;100.00;97267.16;5073854;28;20269;-78
2022/01/09 11:09:36;;;;;;;;;;;;;;;5.28;100.00;97275.03;5074012;28;20252;-78
2022/01/09 11:12:06;;;;;;;;;;;;;;;5.22;100.00;97276.75;5074129;28;19924;-78
2022/01/09 11:14:36;;;;;;;;;;;;;;;5.24;100.00;97285.41;5085483;28;19933;-78
2022/01/09 11:17:05;;;;;;;;;;;;;;;5.23;100.00;97290.16;5094292;28;19928;-78
2022/01/09 11:19:33;;;;;;;;;;;;;;;5.16;100.00;97295.88;5086575;28;20283;-78
2022/01/09 11:22:02;;;;;;;;;;;;;;;5.18;100.00;97287.91;5056899;28;19946;-78
2022/01/09 11:24:29;;;;;;;;;;;;;;;5.25;100.00;97298.03;5094345;28;20371;-78
2022/01/09 11:27:08;;;;;;;;;;;;;;;5.33;100.00;97291.91;5094554;28;20328;-77
2022/01/09 11:29:52;;;;;;;;;;;;;;;5.31;100.00;97294.34;5094574;28;19924;-78
2022/01/09 11:32:24;;;;;;;;;;;;;;;5.31;100.00;97282.47;5094454;28;19932;-80
2022/01/09 11:35:09;;;;;;;;;;;;;;;5.60;100.00;97289.66;5094708;28;19928;-78
2022/01/09 11:37:44;;;;;;;;;;;;;;;5.67;100.00;97274.06;5072990;28;19924;-78
2022/01/09 11:40:22;;;;;;;;;;;;;;;5.68;100.00;97292.28;5087308;28;20271;-78
2022/01/09 11:43:11;;;;;;;;;;;;;;;5.66;100.00;97284.41;5091434;28;19924;-78
2022/01/09 11:45:39;;;;;;;;;;;;;;;5.63;100.00;97274.19;5069554;28;19928;-77
2022/01/09 11:48:06;;;;;;;;;;;;;;;5.84;100.00;97289.50;5073032;28;19924;-77
2022/01/09 11:50:36;;;;;;;;;;;;;;;5.87;100.00;97272.00;5075353;28;19928;-77
2022/01/09 11:53:03;;;;;;;;;;;;;;;6.24;100.00;97276.97;5089859;28;19928;-77
2022/01/09 11:55:35;;;;;;;;;;;;;;;6.15;100.00;97279.59;5075235;28;19924;-78
2022/01/09 11:58:06;;;;;;;;;;;;;;;6.19;100.00;97283.06;5093715;28;19947;-77
2022/01/09 12:00:41;;;;;;;;;;;;;;;6.38;100.00;97302.31;5076253;28;19931;-78
2022/01/09 12:03:27;;;;;;;;;;;;;;;6.47;100.00;97282.25;5075719;28;19924;-78
2022/01/09 12:06:01;;;;;;;;;;;;;;;6.53;100.00;97303.50;5093934;28;19924;-78
2022/01/09 12:08:48;;;;;;;;;;;;;;;6.40;100.00;97302.69;5093302;28;19931;-77
2022/01/09 12:11:16;;;;;;;;;;;;;;;6.46;100.00;97298.16;5075190;28;19950;-77
2022/01/09 12:13:43;;;;;;;;;;;;;;;6.38;100.00;97312.63;5092584;28;19932;-78
2022/01/09 12:16:30;;;;;;;;;;;;;;;6.46;100.00;97311.22;5093030;28;19924;-78
2022/01/09 12:18:58;;;;;;;;;;;;;;;6.74;100.00;97324.34;5092750;28;20018;-77
2022/01/09 12:21:37;;;;;;;;;;;;;;;6.74;100.00;97316.00;5075320;28;19924;-77
2022/01/09 12:24:23;;;;;;;;;;;;;;;6.81;100.00;97324.13;5093722;28;19975;-77
2022/01/09 12:26:52;;;;;;;;;;;;;;;6.87;100.00;97311.25;5092876;28;19928;-77
2022/01/09 12:29:38;;;;;;;;;;;;;;;6.86;100.00;97315.25;5089794;28;20018;-77
2022/01/09 12:32:24;;;;;;;;;;;;;;;6.93;100.00;97326.16;5092259;28;20343;-77
2022/01/09 12:35:10;;;;;;;;;;;;;;;7.09;100.00;97323.28;5093044;28;20291;-77
2022/01/09 12:37:43;;;;;;;;;;;;;;;6.79;100.00;97332.09;5092889;28;19931;-77
2022/01/09 12:40:11;;;;;;;;;;;;;;;7.24;100.00;97329.97;5075612;28;20317;-77
2022/01/09 12:42:42;;;;;;;;;;;;;;;7.27;100.00;97315.19;5092932;28;19924;-77
2022/01/09 12:45:09;;;;;;;;;;;;;;;7.06;100.00;97324.94;5090333;28;19934;-77
2022/01/09 12:47:40;;;;;;;;;;;;;;;7.05;100.00;97311.50;5074545;28;19924;-77
2022/01/09 12:50:07;;;;;;;;;;;;;;;7.31;100.00;97324.97;5093095;28;19924;-76
2022/01/09 12:52:34;;;;;;;;;;;;;;;7.29;100.00;97316.31;5055130;28;19963;-77
2022/01/09 12:55:06;;;;;;;;;;;;;;;7.39;100.00;97326.31;5091197;28;19930;-76
2022/01/09 12:57:54;;;;;;;;;;;;;;;7.26;100.00;97333.09;5091339;28;20345;-76
2022/01/09 13:00:39;;;;;;;;;;;;;;;7.41;100.00;97333.44;5093499;28;20411;-77
2022/01/09 13:03:06;;;;;;;;;;;;;;;7.25;100.00;97337.09;5078182;28;20395;-77
2022/01/09 13:05:33;;;;;;;;;;;;;;;7.43;100.00;97331.78;5096681;28;19963;-77
2022/01/09 13:08:00;;;;;;;;;;;;;;;7.49;100.00;97320.88;5096334;28;20414;-76
2022/01/09 13:10:29;;;;;;;;;;;;;;;7.34;100.00;97332.44;5060638;28;19924;-76